Time;durP1;ratioP1;P1;durP2;ratioP2;P2;SDS_P1;SDS_P2;PMS_P1;PMS_P2;Temp;Humidity;BMP_temperature;BMP_pressure;BME280_temperature;BME280_humidity;BME280_pressure;Samples;Min_cycle;Max_cycle;Signal;HPM_P1;HPM_P2
2023/05/03 00:02:15;;;;;;;9.93;7.10;;;4.20;99.90;;;;;;5077256;28;20890;-58
2023/05/03 00:04:45;;;;;;;11.47;8.93;;;4.20;99.90;;;;;;5077544;28;20461;-59
2023/05/03 00:07:12;;;;;;;14.73;8.27;;;4.10;99.90;;;;;;5076921;28;20623;-61
2023/05/03 00:09:39;;;;;;;13.50;8.47;;;4.10;99.90;;;;;;5077038;28;20492;-59
2023/05/03 00:12:06;;;;;;;12.53;7.63;;;4.10;99.90;;;;;;5077108;28;20468;-61
2023/05/03 00:14:34;;;;;;;11.10;7.90;;;4.00;99.90;;;;;;5076965;28;20531;-58
2023/05/03 00:17:02;;;;;;;8.90;6.83;;;3.90;99.90;;;;;;5076851;28;20943;-58
2023/05/03 00:19:32;;;;;;;14.73;7.40;;;3.90;99.90;;;;;;5077063;28;20489;-58
2023/05/03 00:21:59;;;;;;;12.17;7.67;;;3.90;99.90;;;;;;5076825;28;20564;-55
2023/05/03 00:24:28;;;;;;;10.83;7.40;;;3.80;99.90;;;;;;5077525;28;20485;-59
2023/05/03 00:27:00;;;;;;;11.27;8.40;;;3.80;99.90;;;;;;5077230;28;20835;-60
2023/05/03 00:29:28;;;;;;;11.83;7.83;;;3.70;99.90;;;;;;5076549;28;20583;-59
2023/05/03 00:31:55;;;;;;;11.83;8.13;;;3.80;99.90;;;;;;5076838;28;20560;-57
2023/05/03 00:34:22;;;;;;;10.40;7.43;;;3.80;99.90;;;;;;5077180;28;20899;-60
2023/05/03 00:36:51;;;;;;;16.03;7.87;;;3.80;99.90;;;;;;5077509;28;20463;-59
2023/05/03 00:39:18;;;;;;;11.33;7.93;;;3.70;99.90;;;;;;5076776;28;20488;-59
2023/05/03 00:41:48;;;;;;;9.40;7.27;;;3.60;1.00;;;;;;5076936;28;20944;-59
2023/05/03 00:44:15;;;;;;;11.53;7.47;;;3.50;1.00;;;;;;5076993;28;20464;-60
2023/05/03 00:46:42;;;;;;;13.37;8.23;;;3.40;1.00;;;;;;5076344;28;20493;-59
2023/05/03 00:49:13;;;;;;;9.33;7.63;;;3.30;1.00;;;;;;5077065;28;20461;-60
2023/05/03 00:51:41;;;;;;;12.63;8.20;;;3.30;1.00;;;;;;5076539;28;20472;-58
2023/05/03 00:54:11;;;;;;;11.00;7.30;;;3.30;1.00;;;;;;5076148;28;20485;-60
2023/05/03 00:56:39;;;;;;;11.93;7.97;;;3.30;1.00;;;;;;5076900;28;20909;-59
2023/05/03 00:59:07;;;;;;;13.50;8.87;;;3.30;1.00;;;;;;5077246;28;20457;-60
2023/05/03 01:01:34;;;;;;;15.30;8.60;;;3.30;1.00;;;;;;5076642;28;20483;-60
2023/05/03 01:04:02;;;;;;;12.90;8.37;;;3.20;1.00;;;;;;5076555;28;20465;-58
2023/05/03 01:06:42;;;;;;;11.80;8.50;;;3.30;1.00;;;;;;5076271;28;20503;-60
2023/05/03 01:09:21;;;;;;;8.10;7.30;;;3.20;1.00;;;;;;5076662;28;20468;-56
2023/05/03 01:11:58;;;;;;;10.67;8.07;;;3.20;1.00;;;;;;5076945;28;20468;-59
2023/05/03 01:14:35;;;;;;;14.83;9.50;;;3.20;1.00;;;;;;5076851;28;20438;-58
2023/05/03 01:17:09;;;;;;;9.93;7.30;;;3.30;1.00;;;;;;5079896;28;20460;-60
2023/05/03 01:19:38;;;;;;;10.57;7.50;;;3.30;1.00;;;;;;5080183;28;20466;-61
2023/05/03 01:22:20;;;;;;;9.30;7.47;;;3.20;1.00;;;;;;5080154;28;20465;-59
2023/05/03 01:24:54;;;;;;;13.33;8.50;;;3.10;1.00;;;;;;5079891;28;21059;-58
2023/05/03 01:27:22;;;;;;;11.90;8.50;;;3.10;1.00;;;;;;5079770;28;20493;-60
2023/05/03 01:29:50;;;;;;;16.87;8.90;;;3.10;1.00;;;;;;5080088;28;20560;-60
2023/05/03 01:32:26;;;;;;;14.83;8.30;;;3.10;1.00;;;;;;5079810;28;20493;-58
2023/05/03 01:35:03;;;;;;;9.77;8.50;;;3.00;1.00;;;;;;5079759;28;20468;-59
2023/05/03 01:37:33;;;;;;;11.23;8.20;;;3.00;1.00;;;;;;5079944;28;20556;-61
2023/05/03 01:40:04;;;;;;;10.37;7.87;;;2.90;1.00;;;;;;5079600;28;20544;-59
2023/05/03 01:42:38;;;;;;;10.07;7.73;;;2.80;1.00;;;;;;5079897;28;20560;-58
2023/05/03 01:45:07;;;;;;;10.90;7.70;;;2.80;1.00;;;;;;5079977;28;20564;-61
2023/05/03 01:47:34;;;;;;;9.57;6.97;;;2.80;1.00;;;;;;5079781;28;20512;-61
2023/05/03 01:50:01;;;;;;;13.20;7.60;;;2.70;1.00;;;;;;5079058;28;20469;-58
2023/05/03 01:52:29;;;;;;;10.13;7.73;;;2.70;1.00;;;;;;5079913;28;20552;-60
2023/05/03 01:54:58;;;;;;;16.33;9.87;;;2.80;1.00;;;;;;5079158;28;20468;-56
2023/05/03 01:57:25;;;;;;;11.83;7.50;;;2.70;1.00;;;;;;5079491;28;20440;-61
2023/05/03 01:59:54;;;;;;;11.03;7.53;;;2.70;1.00;;;;;;5079570;28;20461;-60
2023/05/03 02:02:21;;;;;;;13.23;7.50;;;2.70;1.00;;;;;;5079569;28;20503;-61
2023/05/03 02:04:48;;;;;;;11.80;8.17;;;2.60;1.00;;;;;;5078912;28;20473;-59
2023/05/03 02:07:15;;;;;;;11.57;7.90;;;2.60;1.00;;;;;;5079142;28;20493;-60
2023/05/03 02:09:43;;;;;;;10.73;7.53;;;2.50;1.00;;;;;;5079481;28;20464;-60
2023/05/03 02:12:10;;;;;;;11.10;8.07;;;2.50;1.00;;;;;;5079185;28;20810;-60
2023/05/03 02:14:37;;;;;;;12.80;7.73;;;2.50;1.00;;;;;;5079264;28;20567;-59
2023/05/03 02:17:07;;;;;;;11.13;8.27;;;2.50;1.00;;;;;;5079434;28;20536;-61
2023/05/03 02:19:34;;;;;;;8.63;7.73;;;2.50;1.00;;;;;;5064384;28;20545;-58
2023/05/03 02:22:02;;;;;;;11.50;8.60;;;2.50;1.00;;;;;;5058781;28;20436;-58
2023/05/03 02:24:30;;;;;;;14.07;8.67;;;2.50;1.00;;;;;;5058745;28;20559;-60
2023/05/03 02:26:57;;;;;;;10.80;8.60;;;2.60;1.00;;;;;;5057553;28;20495;-61
2023/05/03 02:29:25;;;;;;;10.90;8.30;;;2.50;1.00;;;;;;5058897;28;20796;-60
2023/05/03 02:31:52;;;;;;;14.97;8.87;;;2.40;1.00;;;;;;5059243;28;20560;-61
2023/05/03 02:34:20;;;;;;;9.17;7.60;;;2.40;1.00;;;;;;5058254;28;20560;-61
2023/05/03 02:36:48;;;;;;;10.90;8.13;;;2.50;1.00;;;;;;5058333;28;20564;-60
2023/05/03 02:39:15;;;;;;;12.77;8.43;;;2.50;1.00;;;;;;5058727;28;20454;-61
2023/05/03 02:41:43;;;;;;;16.70;8.07;;;2.40;1.00;;;;;;5058787;28;20470;-60
2023/05/03 02:44:10;;;;;;;13.20;8.37;;;2.40;1.00;;;;;;5058424;28;20463;-56
2023/05/03 02:46:39;;;;;;;17.70;9.50;;;2.40;1.00;;;;;;5058541;28;20924;-60
2023/05/03 02:49:06;;;;;;;14.70;10.30;;;2.30;1.00;;;;;;5058902;28;20466;-61
2023/05/03 02:51:35;;;;;;;10.47;8.63;;;2.30;1.00;;;;;;5058788;28;20488;-60
2023/05/03 02:54:02;;;;;;;10.00;8.07;;;2.30;1.00;;;;;;5058205;28;20864;-60
2023/05/03 02:56:30;;;;;;;12.33;8.00;;;2.30;1.00;;;;;;5058170;28;20494;-60
2023/05/03 02:58:57;;;;;;;13.40;9.43;;;2.20;1.00;;;;;;5057517;28;20466;-59
2023/05/03 03:01:24;;;;;;;11.60;7.73;;;2.10;1.00;;;;;;5058510;28;20462;-59
2023/05/03 03:03:51;;;;;;;13.33;8.93;;;2.20;1.00;;;;;;5058408;28;20796;-59
2023/05/03 03:06:19;;;;;;;13.53;8.47;;;2.10;1.00;;;;;;5057871;28;20496;-58
2023/05/03 03:08:47;;;;;;;14.57;9.53;;;2.10;1.00;;;;;;5058300;28;20475;-61
2023/05/03 03:11:14;;;;;;;14.43;9.60;;;2.10;1.00;;;;;;5071370;28;20964;-61
2023/05/03 03:13:42;;;;;;;12.43;8.30;;;2.10;1.00;;;;;;5075283;28;20871;-59
2023/05/03 03:16:09;;;;;;;12.33;7.87;;;2.10;1.00;;;;;;5078262;28;20470;-61
2023/05/03 03:18:37;;;;;;;15.23;8.07;;;2.20;1.00;;;;;;5078238;28;20457;-61
2023/05/03 03:21:04;;;;;;;9.00;7.70;;;2.20;1.00;;;;;;5078054;28;20886;-59
2023/05/03 03:23:31;;;;;;;13.73;8.00;;;2.20;1.00;;;;;;5071179;28;20753;-60
2023/05/03 03:26:00;;;;;;;15.30;8.30;;;2.20;1.00;;;;;;5057992;28;20743;-60
2023/05/03 03:28:27;;;;;;;12.90;8.13;;;2.10;1.00;;;;;;5057384;28;20488;-58
2023/05/03 03:30:54;;;;;;;10.20;8.13;;;2.00;1.00;;;;;;5057908;28;20469;-61
2023/05/03 03:33:22;;;;;;;18.63;8.50;;;2.00;1.00;;;;;;5057718;28;20560;-61
2023/05/03 03:35:49;;;;;;;13.23;7.63;;;2.00;1.00;;;;;;5058029;28;20469;-60
2023/05/03 03:38:16;;;;;;;11.90;7.77;;;1.90;1.00;;;;;;5057875;28;20458;-59
2023/05/03 03:40:43;;;;;;;15.93;9.40;;;1.80;1.00;;;;;;5057192;28;20568;-61
2023/05/03 03:43:12;;;;;;;11.70;8.37;;;1.80;1.00;;;;;;5056669;28;20671;-60
2023/05/03 03:45:39;;;;;;;14.30;8.87;;;1.80;1.00;;;;;;5057659;28;21002;-59
2023/05/03 03:48:07;;;;;;;9.57;7.77;;;1.80;1.00;;;;;;5057525;28;20545;-61
2023/05/03 03:50:34;;;;;;;11.93;8.70;;;1.90;1.00;;;;;;5057648;28;20465;-57
2023/05/03 03:53:01;;;;;;;12.20;7.80;;;1.80;1.00;;;;;;5057937;28;20476;-60
2023/05/03 03:55:28;;;;;;;15.67;9.40;;;1.70;1.00;;;;;;5057649;28;20490;-58
2023/05/03 03:57:56;;;;;;;11.37;8.20;;;1.70;1.00;;;;;;5057362;28;20482;-58
2023/05/03 04:00:24;;;;;;;12.10;8.37;;;1.80;1.00;;;;;;5057199;28;20466;-61
2023/05/03 04:02:51;;;;;;;14.60;8.60;;;1.70;1.00;;;;;;5057479;28;20548;-59
2023/05/03 04:05:19;;;;;;;11.70;7.37;;;1.60;1.00;;;;;;5057635;28;20502;-59
2023/05/03 04:07:46;;;;;;;13.00;8.63;;;1.60;1.00;;;;;;5057288;28;20458;-61
2023/05/03 04:10:13;;;;;;;10.07;8.10;;;1.50;1.00;;;;;;5057362;28;20465;-61
2023/05/03 04:12:40;;;;;;;12.80;9.30;;;1.60;1.00;;;;;;5057416;28;20983;-61
2023/05/03 04:15:09;;;;;;;11.20;8.73;;;1.60;1.00;;;;;;5056609;28;20466;-61
2023/05/03 04:17:38;;;;;;;12.67;8.33;;;1.70;1.00;;;;;;5057214;28;20956;-60
2023/05/03 04:20:09;;;;;;;13.73;8.17;;;1.70;1.00;;;;;;5056787;28;20501;-60
2023/05/03 04:22:38;;;;;;;13.77;9.10;;;1.70;1.00;;;;;;5059087;28;20556;-60
2023/05/03 04:25:08;;;;;;;15.33;8.37;;;1.70;1.00;;;;;;5077066;28;20464;-61
2023/05/03 04:27:37;;;;;;;12.00;8.43;;;1.70;1.00;;;;;;5077092;28;20488;-61
2023/05/03 04:30:05;;;;;;;15.60;11.80;;;1.80;1.00;;;;;;5076769;28;20469;-60
2023/05/03 04:32:36;;;;;;;15.50;8.97;;;1.80;1.00;;;;;;5075711;28;20464;-61
2023/05/03 04:35:08;;;;;;;13.93;9.33;;;1.80;1.00;;;;;;5077384;28;20485;-59
2023/05/03 04:37:35;;;;;;;16.93;8.83;;;1.80;1.00;;;;;;5077033;28;20996;-61
2023/05/03 04:40:06;;;;;;;17.33;9.33;;;1.80;1.00;;;;;;5076729;28;20888;-60
2023/05/03 04:42:33;;;;;;;13.00;9.40;;;1.90;1.00;;;;;;5076763;28;20516;-60
2023/05/03 04:45:01;;;;;;;14.70;10.67;;;1.90;1.00;;;;;;5076326;28;20552;-61
2023/05/03 04:47:29;;;;;;;13.60;9.43;;;2.00;1.00;;;;;;5077145;28;20798;-58
2023/05/03 04:49:56;;;;;;;17.33;10.53;;;2.10;1.00;;;;;;5077670;28;20810;-58
2023/05/03 04:52:26;;;;;;;13.00;8.80;;;2.10;31.40;;;;;;5081054;28;20544;-61
2023/05/03 04:54:53;;;;;;;16.90;9.80;;;2.20;68.90;;;;;;5079499;28;20916;-60
2023/05/03 04:57:20;;;;;;;15.17;8.10;;;2.20;55.10;;;;;;5080150;28;20580;-61
2023/05/03 04:59:48;;;;;;;18.73;9.30;;;2.30;15.40;;;;;;5079067;28;20492;-60
2023/05/03 05:02:15;;;;;;;14.40;9.27;;;2.40;13.80;;;;;;5078728;28;20898;-61
2023/05/03 05:04:43;;;;;;;17.17;9.77;;;2.40;1.00;;;;;;5078808;28;20912;-59
2023/05/03 05:07:10;;;;;;;15.43;9.87;;;2.40;1.00;;;;;;5078678;28;20503;-59
2023/05/03 05:09:38;;;;;;;15.57;10.07;;;2.40;1.00;;;;;;5079256;28;20465;-60
2023/05/03 05:12:06;;;;;;;12.40;9.47;;;2.50;1.00;;;;;;5079183;28;20461;-61
2023/05/03 05:14:33;;;;;;;16.07;9.87;;;2.50;1.00;;;;;;5079091;28;20547;-60
2023/05/03 05:17:00;;;;;;;12.30;9.27;;;2.60;1.00;;;;;;5067037;28;20481;-60
2023/05/03 05:19:27;;;;;;;14.03;9.20;;;2.60;1.00;;;;;;5058605;28;20457;-60
2023/05/03 05:21:55;;;;;;;11.10;8.67;;;2.70;1.00;;;;;;5058519;28;20890;-58
2023/05/03 05:24:22;;;;;;;20.57;10.00;;;2.70;1.00;;;;;;5058195;28;20466;-60
2023/05/03 05:26:50;;;;;;;14.00;7.97;;;2.80;1.00;;;;;;5058105;28;20552;-61
2023/05/03 05:29:18;;;;;;;14.87;9.30;;;2.90;1.00;;;;;;5058804;28;20478;-60
2023/05/03 05:31:45;;;;;;;14.57;9.57;;;3.10;1.00;;;;;;5058392;28;20466;-61
2023/05/03 05:34:12;;;;;;;14.13;8.53;;;3.20;1.00;;;;;;5059723;28;20509;-58
2023/05/03 05:36:39;;;;;;;15.67;10.13;;;3.30;1.00;;;;;;5059238;28;20466;-62
2023/05/03 05:39:06;;;;;;;18.33;10.60;;;3.40;1.00;;;;;;5065162;28;20863;-62
2023/05/03 05:41:33;;;;;;;13.67;9.53;;;3.50;1.00;;;;;;5077340;28;20799;-62
2023/05/03 05:44:02;;;;;;;15.03;9.90;;;3.60;1.00;;;;;;5076835;28;20835;-62
2023/05/03 05:46:29;;;;;;;12.40;9.23;;;3.80;1.00;;;;;;5077610;28;20730;-63
2023/05/03 05:48:56;;;;;;;19.63;9.80;;;4.00;1.00;;;;;;5078715;28;20451;-63
2023/05/03 05:51:24;;;;;;;20.83;13.00;;;4.20;1.00;;;;;;5078501;28;20552;-63
2023/05/03 05:53:51;;;;;;;19.10;12.87;;;4.40;1.00;;;;;;5079174;28;20691;-64
2023/05/03 05:56:18;;;;;;;16.43;10.03;;;4.50;1.00;;;;;;5078517;28;20453;-64
2023/05/03 05:58:45;;;;;;;15.10;11.70;;;4.70;1.00;;;;;;5077945;28;20633;-64
2023/05/03 06:01:14;;;;;;;14.27;10.43;;;5.00;1.00;;;;;;5077287;28;20468;-65
2023/05/03 06:03:41;;;;;;;20.63;12.57;;;5.20;1.00;;;;;;5076636;28;20817;-65
2023/05/03 06:06:08;;;;;;;18.87;13.70;;;5.50;1.00;;;;;;5074883;28;20797;-65
2023/05/03 06:08:36;;;;;;;11.80;8.93;;;5.80;1.00;;;;;;5075402;28;20463;-65
2023/05/03 06:11:03;;;;;;;12.73;9.77;;;6.20;1.00;;;;;;5074975;28;20458;-64
2023/05/03 06:13:33;;;;;;;12.73;9.27;;;6.60;1.00;;;;;;5070006;28;20514;-64
2023/05/03 06:16:01;;;;;;;10.90;8.93;;;7.00;99.90;;;;;;5057423;28;20466;-64
2023/05/03 06:18:29;;;;;;;10.67;7.80;;;7.40;99.90;;;;;;5058703;28;20611;-65
2023/05/03 06:20:57;;;;;;;11.70;8.27;;;7.70;99.90;;;;;;5076568;28;20556;-64
2023/05/03 06:23:26;;;;;;;13.23;8.00;;;8.00;99.90;;;;;;5078968;28;20519;-64
2023/05/03 06:25:53;;;;;;;13.33;8.80;;;8.30;99.90;;;;;;5079252;28;20835;-64
2023/05/03 06:28:21;;;;;;;11.80;8.10;;;8.40;99.90;;;;;;5078532;28;20592;-63
2023/05/03 06:30:51;;;;;;;8.30;6.90;;;8.80;99.90;;;;;;5078902;28;20476;-63
2023/05/03 06:33:18;;;;;;;8.40;7.13;;;9.10;99.90;;;;;;5078360;28;20453;-63
2023/05/03 06:35:47;;;;;;;9.43;7.27;;;9.40;99.90;;;;;;5078800;28;20977;-61
2023/05/03 06:38:14;;;;;;;7.03;6.33;;;9.70;99.90;;;;;;5078516;28;20592;-62
2023/05/03 06:40:41;;;;;;;9.93;5.30;;;10.00;99.90;;;;;;5078145;28;20458;-62
2023/05/03 06:43:08;;;;;;;10.20;6.50;;;10.20;99.90;;;;;;5078907;28;20826;-62
2023/05/03 06:45:35;;;;;;;7.73;5.97;;;10.30;99.90;;;;;;5078788;28;20500;-62
2023/05/03 06:48:03;;;;;;;7.70;6.10;;;10.60;99.90;;;;;;5078003;28;20556;-62
2023/05/03 06:50:30;;;;;;;8.00;5.57;;;10.90;99.90;;;;;;5078091;28;20510;-62
2023/05/03 06:52:59;;;;;;;8.70;6.23;;;11.00;99.90;;;;;;5078239;28;20460;-62
2023/05/03 06:55:26;;;;;;;8.50;6.70;;;11.20;99.90;;;;;;5078471;28;20462;-62
2023/05/03 06:57:53;;;;;;;9.60;6.60;;;11.50;99.90;;;;;;5078530;28;20917;-61
2023/05/03 07:00:21;;;;;;;12.70;7.10;;;11.40;99.90;;;;;;5077513;28;20801;-62
2023/05/03 07:02:49;;;;;;;9.97;6.10;;;11.40;99.90;;;;;;5078157;28;20497;-59
2023/05/03 07:05:16;;;;;;;10.50;6.90;;;11.50;99.90;;;;;;5075535;28;20844;-61
2023/05/03 07:07:43;;;;;;;9.30;5.63;;;11.70;99.90;;;;;;5076282;28;20476;-61
2023/05/03 07:10:12;;;;;;;6.90;5.73;;;12.10;99.90;;;;;;5076568;28;20878;-61
2023/05/03 07:12:39;;;;;;;6.33;4.60;;;12.20;99.90;;;;;;5075126;28;20552;-62
2023/05/03 07:15:08;;;;;;;6.53;4.70;;;12.30;99.90;;;;;;5075838;28;20542;-61
2023/05/03 07:17:35;;;;;;;5.63;4.87;;;12.40;99.90;;;;;;5076435;28;20588;-61
2023/05/03 07:20:03;;;;;;;8.50;5.23;;;12.40;99.90;;;;;;5074944;28;20457;-61
2023/05/03 07:22:30;;;;;;;6.67;4.97;;;12.60;99.90;;;;;;5074944;28;20556;-60
2023/05/03 07:24:58;;;;;;;5.70;4.50;;;13.10;99.90;;;;;;5074092;28;20466;-61
2023/05/03 07:27:27;;;;;;;7.60;5.20;;;13.00;99.90;;;;;;5074374;28;20979;-61
2023/05/03 07:29:54;;;;;;;5.60;5.10;;;12.90;99.90;;;;;;5074754;28;20491;-61
2023/05/03 07:32:21;;;;;;;7.67;4.63;;;13.30;99.90;;;;;;5074769;28;20524;-61
2023/05/03 07:34:48;;;;;;;5.20;4.70;;;13.40;99.90;;;;;;5074125;28;20472;-62
2023/05/03 07:37:16;;;;;;;11.00;5.30;;;13.50;99.90;;;;;;5074095;28;20461;-61
2023/05/03 07:39:44;;;;;;;7.80;4.40;;;13.90;99.90;;;;;;5073870;28;20540;-61
2023/05/03 07:42:13;;;;;;;6.33;5.03;;;14.10;99.90;;;;;;5074886;28;20766;-61
2023/05/03 07:44:42;;;;;;;6.10;4.53;;;13.90;99.90;;;;;;5074913;28;20479;-59
2023/05/03 07:47:09;;;;;;;6.63;5.20;;;14.20;99.90;;;;;;5074774;28;20564;-60
2023/05/03 07:49:38;;;;;;;7.07;4.93;;;14.30;99.90;;;;;;5075712;28;20518;-61
2023/05/03 07:52:05;;;;;;;8.87;5.67;;;14.50;99.90;;;;;;5075192;28;20549;-60
2023/05/03 07:54:35;;;;;;;7.67;4.73;;;14.50;99.90;;;;;;5076980;28;20469;-60
2023/05/03 07:57:02;;;;;;;9.10;5.23;;;14.60;99.90;;;;;;5077187;28;20468;-61
2023/05/03 07:59:29;;;;;;;6.90;4.70;;;14.60;99.90;;;;;;5076578;28;20533;-59
2023/05/03 08:01:58;;;;;;;4.73;4.23;;;14.50;99.90;;;;;;5077340;28;20471;-61
2023/05/03 08:04:25;;;;;;;5.23;4.80;;;14.90;99.90;;;;;;5073802;28;20571;-60
2023/05/03 08:06:52;;;;;;;5.33;4.80;;;15.10;99.90;;;;;;5078933;28;20477;-60
2023/05/03 08:09:20;;;;;;;4.60;4.20;;;15.20;99.90;;;;;;5075202;28;20551;-61
2023/05/03 08:11:47;;;;;;;9.80;4.13;;;15.20;99.90;;;;;;5075875;28;20879;-59
2023/05/03 08:14:14;;;;;;;6.30;4.80;;;15.10;99.90;;;;;;5075201;28;20909;-61
2023/05/03 08:16:44;;;;;;;5.00;4.50;;;15.50;99.90;;;;;;5075643;28;20544;-61
2023/05/03 08:19:13;;;;;;;5.23;4.50;;;15.20;99.90;;;;;;5075379;28;20485;-60
2023/05/03 08:21:42;;;;;;;4.93;4.20;;;15.20;99.90;;;;;;5076754;28;20469;-60
2023/05/03 08:24:09;;;;;;;5.93;4.90;;;15.40;99.90;;;;;;5076887;28;20552;-61
2023/05/03 08:26:36;;;;;;;5.03;4.53;;;14.80;99.90;;;;;;5080497;28;20465;-61
2023/05/03 08:29:04;;;;;;;6.37;5.50;;;15.10;99.90;;;;;;5080516;28;20579;-61
2023/05/03 08:31:33;;;;;;;5.53;5.03;;;15.10;99.90;;;;;;5081206;28;20849;-61
2023/05/03 08:34:02;;;;;;;9.03;5.70;;;14.60;99.90;;;;;;5080782;28;20735;-62
2023/05/03 08:36:31;;;;;;;6.53;5.20;;;15.00;99.90;;;;;;5080613;28;20465;-61
2023/05/03 08:39:01;;;;;;;5.50;5.00;;;15.30;99.90;;;;;;5080753;28;20500;-61
2023/05/03 08:41:30;;;;;;;7.60;5.33;;;15.40;99.90;;;;;;5081261;28;20753;-61
2023/05/03 08:43:59;;;;;;;6.23;5.50;;;14.90;99.90;;;;;;5080760;28;20545;-61
2023/05/03 08:46:28;;;;;;;5.27;4.77;;;14.90;99.90;;;;;;5080839;28;20467;-60
2023/05/03 08:48:55;;;;;;;6.30;4.77;;;15.50;99.90;;;;;;5080607;28;20495;-61
2023/05/03 08:51:23;;;;;;;7.47;5.17;;;16.00;99.90;;;;;;5079902;28;20907;-61
2023/05/03 08:53:52;;;;;;;6.87;6.20;;;16.20;99.90;;;;;;5080627;28;20440;-61
2023/05/03 08:56:26;;;;;;;5.87;5.00;;;15.30;99.90;;;;;;5080284;28;20467;-62
2023/05/03 08:58:54;;;;;;;8.33;5.10;;;14.70;99.90;;;;;;5080363;28;20824;-61
2023/05/03 09:01:21;;;;;;;5.33;4.83;;;15.30;99.90;;;;;;5080433;28;20559;-62
2023/05/03 09:03:52;;;;;;;9.63;5.40;;;15.90;99.90;;;;;;5080043;28;20945;-61
2023/05/03 09:06:21;;;;;;;6.17;5.57;;;15.50;99.90;;;;;;5079643;28;20555;-61
2023/05/03 09:08:48;;;;;;;7.03;6.20;;;16.10;99.90;;;;;;5080446;28;20889;-61
2023/05/03 09:11:24;;;;;;;6.83;5.60;;;16.10;99.90;;;;;;5078610;28;20461;-62
2023/05/03 09:13:52;;;;;;;5.77;5.17;;;15.90;99.90;;;;;;5080438;28;20496;-62
2023/05/03 09:16:26;;;;;;;6.10;5.50;;;15.60;99.90;;;;;;5080092;28;20472;-60
2023/05/03 09:19:03;;;;;;;7.20;5.80;;;16.20;99.90;;;;;;5079847;28;20974;-60
2023/05/03 09:21:31;;;;;;;11.60;6.00;;;16.60;99.90;;;;;;5080306;28;20918;-58
2023/05/03 09:23:58;;;;;;;8.40;5.67;;;17.20;99.90;;;;;;5079722;28;20898;-61
2023/05/03 09:26:31;;;;;;;7.17;5.50;;;17.60;99.90;;;;;;5080058;28;20503;-61
2023/05/03 09:29:00;;;;;;;6.70;6.03;;;18.00;99.90;;;;;;5079501;28;20485;-62
2023/05/03 09:31:28;;;;;;;5.97;5.37;;;18.10;99.90;;;;;;5079910;28;20461;-62
2023/05/03 09:33:56;;;;;;;6.77;5.90;;;18.50;99.90;;;;;;5079894;28;20467;-63
2023/05/03 09:36:23;;;;;;;6.23;5.50;;;16.80;99.90;;;;;;5073092;28;20541;-62
2023/05/03 09:38:51;;;;;;;9.93;6.87;;;15.90;99.90;;;;;;5078124;28;20484;-63
2023/05/03 09:41:28;;;;;;;8.13;5.37;;;15.70;99.90;;;;;;5079097;28;20500;-62
2023/05/03 09:44:01;;;;;;;6.60;5.90;;;15.70;99.90;;;;;;5076074;28;20464;-61
2023/05/03 09:46:29;;;;;;;5.73;5.23;;;16.40;99.90;;;;;;5076657;28;20499;-61
2023/05/03 09:48:57;;;;;;;9.00;6.43;;;17.20;99.90;;;;;;5073632;28;20873;-62
2023/05/03 09:51:25;;;;;;;6.87;6.27;;;17.60;99.90;;;;;;5076511;28;20457;-60
2023/05/03 09:53:53;;;;;;;5.93;5.33;;;16.70;99.90;;;;;;5076474;28;20457;-59
2023/05/03 09:56:25;;;;;;;8.37;5.87;;;17.30;99.90;;;;;;5076403;28;20898;-63
2023/05/03 09:58:53;;;;;;;7.03;5.50;;;17.80;99.90;;;;;;5075817;28;20495;-61
2023/05/03 10:01:24;;;;;;;7.10;5.80;;;17.50;99.90;;;;;;5075819;28;20469;-62
2023/05/03 10:03:57;;;;;;;10.03;5.57;;;18.00;99.90;;;;;;5074941;28;20435;-63
2023/05/03 10:06:26;;;;;;;6.40;5.80;;;18.60;99.90;;;;;;5076421;28;20460;-63
2023/05/03 10:09:04;;;;;;;5.50;5.00;;;19.00;99.90;;;;;;5076196;28;20511;-62
2023/05/03 10:11:34;;;;;;;6.17;5.57;;;18.40;99.90;;;;;;5076095;28;20966;-61
2023/05/03 10:14:01;;;;;;;6.47;5.57;;;18.10;99.90;;;;;;5076691;28;20858;-62
2023/05/03 10:16:35;;;;;;;6.70;4.90;;;18.00;99.90;;;;;;5077896;28;20457;-61
2023/05/03 10:19:10;;;;;;;8.57;5.80;;;18.50;99.90;;;;;;5077103;28;20511;-62
2023/05/03 10:21:51;;;;;;;6.83;5.67;;;18.40;99.90;;;;;;5073903;28;20460;-63
2023/05/03 10:24:18;;;;;;;6.80;6.03;;;18.30;99.90;;;;;;5073933;28;20550;-62
2023/05/03 10:26:46;;;;;;;6.30;5.70;;;18.50;99.90;;;;;;5076181;28;20937;-63
2023/05/03 10:29:48;;;;;;;6.23;5.63;;;19.00;99.90;;;;;;5075033;28;20522;-63
2023/05/03 10:32:38;;;;;;;5.53;5.03;;;18.80;99.90;;;;;;5075139;28;20912;-62
2023/05/03 10:35:09;;;;;;;6.07;5.37;;;19.30;99.90;;;;;;5074000;28;20773;-62
2023/05/03 10:37:36;;;;;;;5.90;5.40;;;19.40;99.90;;;;;;5074127;28;20969;-62
2023/05/03 10:40:13;;;;;;;5.67;5.17;;;19.50;99.90;;;;;;5076854;28;20583;-60
2023/05/03 10:42:45;;;;;;;6.93;5.37;;;20.20;99.90;;;;;;5078183;28;20461;-63
2023/05/03 10:45:25;;;;;;;7.63;5.20;;;20.10;99.90;;;;;;5077254;28;20461;-62
2023/05/03 10:48:21;;;;;;;7.10;5.57;;;19.90;99.90;;;;;;5076303;28;20464;-60
2023/05/03 10:50:50;;;;;;;7.33;5.43;;;19.70;99.90;;;;;;5077251;28;20465;-60
2023/05/03 10:53:38;;;;;;;8.17;5.90;;;18.30;99.90;;;;;;5076945;28;20567;-62
2023/05/03 10:56:08;;;;;;;5.97;5.40;;;18.60;99.90;;;;;;5073613;28;20925;-62
2023/05/03 10:58:37;;;;;;;5.93;4.80;;;18.90;99.90;;;;;;5076087;28;20901;-62
2023/05/03 11:01:06;;;;;;;6.43;4.70;;;19.50;99.90;;;;;;5075816;28;20459;-59
2023/05/03 11:03:50;;;;;;;5.27;4.77;;;19.60;99.90;;;;;;5075963;28;20458;-62
2023/05/03 11:06:31;;;;;;;6.00;5.47;;;20.30;99.90;;;;;;5075716;28;20548;-60
2023/05/03 11:08:58;;;;;;;8.27;5.07;;;19.70;99.90;;;;;;5072859;28;20450;-63
2023/05/03 11:11:26;;;;;;;5.23;4.80;;;19.70;99.90;;;;;;5076474;28;20454;-62
2023/05/03 11:13:54;;;;;;;5.97;4.87;;;18.20;99.90;;;;;;5077232;28;20762;-62
2023/05/03 11:16:21;;;;;;;4.87;4.37;;;17.50;99.90;;;;;;5077174;28;20956;-62
2023/05/03 11:18:50;;;;;;;5.93;4.77;;;18.70;99.90;;;;;;5076440;28;20527;-63
2023/05/03 11:21:17;;;;;;;5.90;5.07;;;19.30;99.90;;;;;;5076856;28;20457;-63
2023/05/03 11:23:45;;;;;;;5.53;5.00;;;18.60;99.90;;;;;;5077399;28;20465;-62
2023/05/03 11:26:13;;;;;;;7.97;5.40;;;19.10;99.90;;;;;;5077648;28;20461;-62
2023/05/03 11:28:41;;;;;;;5.50;5.00;;;20.10;99.90;;;;;;5076869;28;20874;-62
2023/05/03 11:31:09;;;;;;;5.27;4.73;;;20.00;99.90;;;;;;5076154;28;20823;-62
2023/05/03 11:33:38;;;;;;;6.43;4.60;;;20.20;99.90;;;;;;5076900;28;20778;-61
2023/05/03 11:36:08;;;;;;;5.20;4.70;;;19.40;99.90;;;;;;5077075;28;20483;-62
2023/05/03 11:38:37;;;;;;;7.00;5.03;;;20.30;99.90;;;;;;5076349;28;20465;-59
2023/05/03 11:41:13;;;;;;;4.73;4.33;;;21.00;99.90;;;;;;5076277;28;20504;-62
2023/05/03 11:43:44;;;;;;;6.67;5.47;;;21.40;99.90;;;;;;5076904;28;20900;-61
2023/05/03 11:46:13;;;;;;;5.63;5.00;;;21.40;99.90;;;;;;5074931;28;20535;-62
2023/05/03 11:48:40;;;;;;;6.57;5.97;;;19.90;99.90;;;;;;5075732;28;20534;-62
2023/05/03 11:51:10;;;;;;;5.50;5.00;;;20.50;99.90;;;;;;5076130;28;20467;-61
2023/05/03 11:53:39;;;;;;;6.40;5.33;;;20.80;99.90;;;;;;5070432;28;20904;-61
2023/05/03 11:56:12;;;;;;;7.73;5.97;;;20.70;99.90;;;;;;5069145;28;20473;-60
2023/05/03 11:58:51;;;;;;;6.67;5.73;;;20.80;99.90;;;;;;5071078;28;20882;-62
2023/05/03 12:01:20;;;;;;;6.50;5.73;;;21.00;99.90;;;;;;5065776;28;20465;-61
2023/05/03 12:03:48;;;;;;;6.50;5.90;;;21.40;99.90;;;;;;5070048;28;20468;-63
2023/05/03 12:06:17;;;;;;;6.10;5.60;;;20.30;99.90;;;;;;5070671;28;20891;-62
2023/05/03 12:08:44;;;;;;;7.13;5.27;;;19.30;99.90;;;;;;5071717;28;20473;-62
2023/05/03 12:11:12;;;;;;;8.07;5.33;;;19.60;99.90;;;;;;5071916;28;20558;-60
2023/05/03 12:13:39;;;;;;;8.93;5.80;;;19.40;99.90;;;;;;5072939;28;20461;-63
2023/05/03 12:16:08;;;;;;;7.37;5.37;;;19.60;99.90;;;;;;5073084;28;20469;-61
2023/05/03 12:18:52;;;;;;;8.07;5.43;;;20.10;99.90;;;;;;5072441;28;20556;-62
2023/05/03 12:21:23;;;;;;;6.23;5.37;;;20.90;99.90;;;;;;5073020;28;20551;-62
2023/05/03 12:23:51;;;;;;;6.87;5.17;;;21.20;99.90;;;;;;5074638;28;20461;-62
2023/05/03 12:26:20;;;;;;;6.60;5.00;;;21.00;99.90;;;;;;5074828;28;20461;-60
2023/05/03 12:28:48;;;;;;;8.23;5.43;;;21.40;99.90;;;;;;5073379;28;20489;-62
2023/05/03 12:31:17;;;;;;;6.10;5.63;;;21.90;99.90;;;;;;5072184;28;20968;-62
2023/05/03 12:33:44;;;;;;;6.33;5.37;;;21.50;99.90;;;;;;5058281;28;20470;-62
2023/05/03 12:36:12;;;;;;;6.73;5.10;;;21.00;99.90;;;;;;5055827;28;20745;-62
2023/05/03 12:38:40;;;;;;;6.10;5.50;;;21.30;99.90;;;;;;5064323;28;20500;-63
2023/05/03 12:41:07;;;;;;;5.50;5.00;;;20.80;99.90;;;;;;5073627;28;20495;-62
2023/05/03 12:43:36;;;;;;;7.33;6.00;;;21.00;99.90;;;;;;5074180;28;20471;-62
2023/05/03 12:46:03;;;;;;;6.00;5.20;;;21.10;99.90;;;;;;5069325;28;20913;-63
2023/05/03 12:48:31;;;;;;;5.30;4.77;;;20.60;99.90;;;;;;5074394;28;20457;-62
2023/05/03 12:50:58;;;;;;;6.63;5.73;;;20.50;99.90;;;;;;5071313;28;20488;-63
2023/05/03 12:53:25;;;;;;;5.87;5.37;;;18.90;99.90;;;;;;5073833;28;20468;-62
2023/05/03 12:55:56;;;;;;;7.23;6.03;;;18.40;99.90;;;;;;5055017;28;20477;-62
2023/05/03 12:58:23;;;;;;;7.77;6.30;;;18.90;99.90;;;;;;5053224;28;20630;-62
2023/05/03 13:00:51;;;;;;;7.27;6.67;;;18.80;99.90;;;;;;5052390;28;20907;-62